sensor_id;sensor_type;location;lat;lon;timestamp;pressure;altitude;pressure_sealevel;temperature;humidity
22649;BME280;11491;41.942;24.220;2022-07-15T00:01:48;90088.25;;;11.69;79.56
22649;BME280;11491;41.942;24.220;2022-07-15T00:04:16;90162.94;;;12.18;80.03
22649;BME280;11491;41.942;24.220;2022-07-15T00:06:46;90059.19;;;11.39;80.67
22649;BME280;11491;41.942;24.220;2022-07-15T00:09:14;90089.81;;;11.70;80.58
22649;BME280;11491;41.942;24.220;2022-07-15T00:11:41;90101.38;;;11.74;80.16
22649;BME280;11491;41.942;24.220;2022-07-15T00:14:09;90171.91;;;12.42;79.77
22649;BME280;11491;41.942;24.220;2022-07-15T00:16:36;90035.72;;;11.49;79.43
22649;BME280;11491;41.942;24.220;2022-07-15T00:19:05;90070.69;;;11.72;79.16
22649;BME280;11491;41.942;24.220;2022-07-15T00:35:35;90067.53;;;11.98;76.81
22649;BME280;11491;41.942;24.220;2022-07-15T00:38:54;90057.25;;;11.68;78.69
22649;BME280;11491;41.942;24.220;2022-07-15T00:42:03;90063.88;;;11.74;77.68
22649;BME280;11491;41.942;24.220;2022-07-15T00:44:55;90108.03;;;12.12;77.10
22649;BME280;11491;41.942;24.220;2022-07-15T00:47:41;90163.78;;;12.54;77.50
22649;BME280;11491;41.942;24.220;2022-07-15T00:50:10;90106.59;;;11.99;78.88
22649;BME280;11491;41.942;24.220;2022-07-15T01:04:45;90037.69;;;11.52;78.36
22649;BME280;11491;41.942;24.220;2022-07-15T01:07:16;90119.47;;;12.09;79.30
22649;BME280;11491;41.942;24.220;2022-07-15T01:10:12;90154.31;;;12.09;80.32
22649;BME280;11491;41.942;24.220;2022-07-15T01:12:56;90051.59;;;11.41;80.45
22649;BME280;11491;41.942;24.220;2022-07-15T01:15:29;90143.94;;;12.23;78.58
22649;BME280;11491;41.942;24.220;2022-07-15T01:27:44;90139.25;;;12.20;78.26
22649;BME280;11491;41.942;24.220;2022-07-15T01:30:27;90030.53;;;11.40;78.16
22649;BME280;11491;41.942;24.220;2022-07-15T01:32:55;90130.44;;;12.04;79.36
22649;BME280;11491;41.942;24.220;2022-07-15T01:35:38;90105.19;;;11.73;79.57
22649;BME280;11491;41.942;24.220;2022-07-15T01:38:20;90010.97;;;11.08;80.23
22649;BME280;11491;41.942;24.220;2022-07-15T01:40:50;90073.19;;;11.49;80.05
22649;BME280;11491;41.942;24.220;2022-07-15T01:43:21;90127.84;;;11.92;79.62
22649;BME280;11491;41.942;24.220;2022-07-15T01:45:49;90073.03;;;11.41;80.52
22649;BME280;11491;41.942;24.220;2022-07-15T01:48:16;90051.41;;;11.34;80.59
22649;BME280;11491;41.942;24.220;2022-07-15T01:51:01;90135.63;;;11.97;79.96
22649;BME280;11491;41.942;24.220;2022-07-15T01:53:34;90030.06;;;11.22;79.84
22649;BME280;11491;41.942;24.220;2022-07-15T01:56:17;90055.56;;;11.48;78.66
22649;BME280;11491;41.942;24.220;2022-07-15T01:58:55;89999.06;;;10.89;78.86
22649;BME280;11491;41.942;24.220;2022-07-15T02:01:37;90071.94;;;11.30;79.60
22649;BME280;11491;41.942;24.220;2022-07-15T02:04:06;90002.47;;;10.74;79.78
22649;BME280;11491;41.942;24.220;2022-07-15T02:06:34;89997.69;;;10.67;80.64
22649;BME280;11491;41.942;24.220;2022-07-15T02:09:03;90129.53;;;11.68;81.09
22649;BME280;11491;41.942;24.220;2022-07-15T02:14:33;89993.13;;;10.68;81.51
22649;BME280;11491;41.942;24.220;2022-07-15T02:19:39;90132.81;;;11.77;81.12
22649;BME280;11491;41.942;24.220;2022-07-15T02:22:11;90149.41;;;11.67;81.85
22649;BME280;11491;41.942;24.220;2022-07-15T02:24:51;90084.13;;;11.28;81.30
22649;BME280;11491;41.942;24.220;2022-07-15T02:27:23;90148.28;;;11.68;81.15
22649;BME280;11491;41.942;24.220;2022-07-15T02:29:53;90052.81;;;11.00;81.97
22649;BME280;11491;41.942;24.220;2022-07-15T02:35:11;90155.00;;;11.62;82.37
22649;BME280;11491;41.942;24.220;2022-07-15T02:37:40;90043.13;;;10.95;80.90
22649;BME280;11491;41.942;24.220;2022-07-15T02:45:34;90106.72;;;11.14;82.52
22649;BME280;11491;41.942;24.220;2022-07-15T02:48:18;90068.28;;;11.07;81.84
22649;BME280;11491;41.942;24.220;2022-07-15T02:50:45;90105.72;;;11.35;81.13
22649;BME280;11491;41.942;24.220;2022-07-15T02:53:13;90085.03;;;11.04;79.97
22649;BME280;11491;41.942;24.220;2022-07-15T02:55:40;90091.25;;;11.08;81.42
22649;BME280;11491;41.942;24.220;2022-07-15T02:58:07;90049.91;;;10.77;80.76
22649;BME280;11491;41.942;24.220;2022-07-15T03:00:51;90106.84;;;11.18;81.05
22649;BME280;11491;41.942;24.220;2022-07-15T03:03:34;90129.78;;;11.19;81.73
22649;BME280;11491;41.942;24.220;2022-07-15T03:06:03;90085.09;;;10.91;82.10
22649;BME280;11491;41.942;24.220;2022-07-15T03:08:45;90010.31;;;10.39;81.72
22649;BME280;11491;41.942;24.220;2022-07-15T03:11:26;90021.03;;;10.54;81.11
22649;BME280;11491;41.942;24.220;2022-07-15T03:13:59;90089.69;;;11.07;80.38
22649;BME280;11491;41.942;24.220;2022-07-15T03:16:27;90018.13;;;10.60;80.40
22649;BME280;11491;41.942;24.220;2022-07-15T03:19:01;90066.38;;;10.91;80.64
22649;BME280;11491;41.942;24.220;2022-07-15T03:21:38;90151.72;;;11.53;80.50
22649;BME280;11491;41.942;24.220;2022-07-15T03:24:08;90120.72;;;11.24;80.84
22649;BME280;11491;41.942;24.220;2022-07-15T03:26:48;90087.22;;;11.14;81.09
22649;BME280;11491;41.942;24.220;2022-07-15T03:29:16;90102.34;;;11.22;81.01
22649;BME280;11491;41.942;24.220;2022-07-15T03:31:45;90079.00;;;10.78;82.24
22649;BME280;11491;41.942;24.220;2022-07-15T03:34:15;90112.84;;;11.15;82.43
22649;BME280;11491;41.942;24.220;2022-07-15T03:36:42;90029.00;;;10.39;82.97
22649;BME280;11491;41.942;24.220;2022-07-15T03:39:46;90143.88;;;11.32;83.55
22649;BME280;11491;41.942;24.220;2022-07-15T03:59:25;90042.94;;;11.32;81.92
22649;BME280;11491;41.942;24.220;2022-07-15T04:04:32;90013.41;;;11.13;81.72
22649;BME280;11491;41.942;24.220;2022-07-15T04:09:35;89973.97;;;11.41;81.05
22649;BME280;11491;41.942;24.220;2022-07-15T04:12:35;90008.59;;;11.66;80.47
22649;BME280;11491;41.942;24.220;2022-07-15T04:35:46;90006.94;;;13.06;75.94
22649;BME280;11491;41.942;24.220;2022-07-15T04:40:49;90038.19;;;13.80;74.24
22649;BME280;11491;41.942;24.220;2022-07-15T04:43:19;90015.84;;;13.76;74.01
22649;BME280;11491;41.942;24.220;2022-07-15T04:46:02;90057.03;;;14.33;73.05
22649;BME280;11491;41.942;24.220;2022-07-15T04:48:44;90086.44;;;14.72;73.04
22649;BME280;11491;41.942;24.220;2022-07-15T04:51:30;90087.00;;;14.85;72.42
22649;BME280;11491;41.942;24.220;2022-07-15T04:53:58;90111.16;;;15.08;71.89
22649;BME280;11491;41.942;24.220;2022-07-15T04:56:57;90096.22;;;15.14;71.50
22649;BME280;11491;41.942;24.220;2022-07-15T05:00:06;89996.38;;;14.62;70.87
22649;BME280;11491;41.942;24.220;2022-07-15T05:02:36;90017.56;;;14.98;70.60
22649;BME280;11491;41.942;24.220;2022-07-15T05:30:55;90043.31;;;17.43;64.25
22649;BME280;11491;41.942;24.220;2022-07-15T05:33:25;90061.16;;;17.69;63.86
22649;BME280;11491;41.942;24.220;2022-07-15T05:35:52;90043.47;;;17.90;62.82
22649;BME280;11491;41.942;24.220;2022-07-15T05:38:19;90028.78;;;18.08;61.96
22649;BME280;11491;41.942;24.220;2022-07-15T05:40:46;90112.31;;;18.85;62.22
22649;BME280;11491;41.942;24.220;2022-07-15T05:43:13;90073.25;;;18.83;62.41
22649;BME280;11491;41.942;24.220;2022-07-15T05:45:40;90108.41;;;19.22;62.14
22649;BME280;11491;41.942;24.220;2022-07-15T05:48:08;90108.38;;;19.33;61.16
22649;BME280;11491;41.942;24.220;2022-07-15T05:50:35;90115.28;;;19.45;61.25
22649;BME280;11491;41.942;24.220;2022-07-15T05:53:03;90095.16;;;19.42;61.17
22649;BME280;11491;41.942;24.220;2022-07-15T05:55:30;90094.34;;;19.52;60.70
22649;BME280;11491;41.942;24.220;2022-07-15T05:57:58;90019.81;;;19.05;59.89
22649;BME280;11491;41.942;24.220;2022-07-15T06:00:26;90094.34;;;19.59;60.60
22649;BME280;11491;41.942;24.220;2022-07-15T06:02:53;90082.34;;;19.68;60.21
22649;BME280;11491;41.942;24.220;2022-07-15T06:05:21;90076.13;;;19.71;59.23
22649;BME280;11491;41.942;24.220;2022-07-15T06:07:48;90004.56;;;19.43;59.64
22649;BME280;11491;41.942;24.220;2022-07-15T06:10:15;90057.09;;;19.78;58.73
22649;BME280;11491;41.942;24.220;2022-07-15T06:12:42;90074.34;;;20.09;57.38
22649;BME280;11491;41.942;24.220;2022-07-15T06:15:09;90108.56;;;20.52;57.62
22649;BME280;11491;41.942;24.220;2022-07-15T06:17:36;90051.44;;;20.14;58.35
22649;BME280;11491;41.942;24.220;2022-07-15T06:20:04;90027.03;;;20.14;57.71
22649;BME280;11491;41.942;24.220;2022-07-15T06:22:32;90102.03;;;20.98;58.23
22649;BME280;11491;41.942;24.220;2022-07-15T06:24:59;90105.72;;;21.22;54.33
22649;BME280;11491;41.942;24.220;2022-07-15T06:27:26;90072.53;;;21.00;55.50
22649;BME280;11491;41.942;24.220;2022-07-15T06:29:56;90090.81;;;21.34;55.94
22649;BME280;11491;41.942;24.220;2022-07-15T06:32:23;90094.47;;;21.58;52.87
22649;BME280;11491;41.942;24.220;2022-07-15T06:34:50;90100.69;;;21.58;51.08
22649;BME280;11491;41.942;24.220;2022-07-15T06:37:17;90088.97;;;21.61;50.85
22649;BME280;11491;41.942;24.220;2022-07-15T06:39:45;90086.63;;;21.63;50.50
22649;BME280;11491;41.942;24.220;2022-07-15T06:42:12;90088.25;;;21.57;50.99
22649;BME280;11491;41.942;24.220;2022-07-15T06:44:39;90084.28;;;21.65;51.49
22649;BME280;11491;41.942;24.220;2022-07-15T06:47:05;90071.66;;;21.79;51.04
22649;BME280;11491;41.942;24.220;2022-07-15T06:49:33;90084.56;;;22.05;49.73
22649;BME280;11491;41.942;24.220;2022-07-15T06:52:00;89995.91;;;21.46;48.80
22649;BME280;11491;41.942;24.220;2022-07-15T06:54:27;90077.19;;;22.33;49.15
22649;BME280;11491;41.942;24.220;2022-07-15T06:56:55;90075.47;;;22.46;48.59
22649;BME280;11491;41.942;24.220;2022-07-15T06:59:22;90072.88;;;22.63;45.17
22649;BME280;11491;41.942;24.220;2022-07-15T07:01:49;90068.25;;;22.60;44.10
22649;BME280;11491;41.942;24.220;2022-07-15T07:04:16;90070.81;;;22.43;46.49
22649;BME280;11491;41.942;24.220;2022-07-15T07:06:43;90071.34;;;22.62;45.89
22649;BME280;11491;41.942;24.220;2022-07-15T07:09:10;90066.09;;;22.47;46.44
22649;BME280;11491;41.942;24.220;2022-07-15T07:11:37;90053.78;;;22.39;46.71
22649;BME280;11491;41.942;24.220;2022-07-15T07:14:06;90072.75;;;22.70;49.14
22649;BME280;11491;41.942;24.220;2022-07-15T07:16:33;90077.88;;;22.91;47.05
22649;BME280;11491;41.942;24.220;2022-07-15T07:19:00;90070.53;;;22.88;46.30
22649;BME280;11491;41.942;24.220;2022-07-15T07:21:27;90069.13;;;23.04;48.61
22649;BME280;11491;41.942;24.220;2022-07-15T07:23:54;90076.91;;;23.25;46.88
22649;BME280;11491;41.942;24.220;2022-07-15T07:26:21;90050.97;;;23.17;45.22
22649;BME280;11491;41.942;24.220;2022-07-15T07:28:47;90026.16;;;23.11;42.64
22649;BME280;11491;41.942;24.220;2022-07-15T07:31:16;90061.91;;;23.37;42.95
22649;BME280;11491;41.942;24.220;2022-07-15T07:33:42;90070.28;;;23.26;42.60
22649;BME280;11491;41.942;24.220;2022-07-15T07:36:09;90065.22;;;23.48;45.15
22649;BME280;11491;41.942;24.220;2022-07-15T07:38:36;90054.31;;;23.48;41.77
22649;BME280;11491;41.942;24.220;2022-07-15T07:41:03;90079.56;;;23.72;44.20
22649;BME280;11491;41.942;24.220;2022-07-15T07:43:30;90066.72;;;23.93;43.89
22649;BME280;11491;41.942;24.220;2022-07-15T07:45:58;90052.16;;;23.79;41.06
22649;BME280;11491;41.942;24.220;2022-07-15T07:48:26;90071.19;;;24.03;42.28
22649;BME280;11491;41.942;24.220;2022-07-15T07:50:53;90069.50;;;24.09;43.29
22649;BME280;11491;41.942;24.220;2022-07-15T07:53:20;90037.66;;;24.02;43.26
22649;BME280;11491;41.942;24.220;2022-07-15T07:55:47;90070.00;;;24.40;43.98
22649;BME280;11491;41.942;24.220;2022-07-15T07:58:14;90063.97;;;24.49;41.00
22649;BME280;11491;41.942;24.220;2022-07-15T08:00:42;90070.63;;;24.64;41.49
22649;BME280;11491;41.942;24.220;2022-07-15T08:03:10;90074.41;;;24.70;41.51
22649;BME280;11491;41.942;24.220;2022-07-15T08:05:39;90077.34;;;24.80;42.07
22649;BME280;11491;41.942;24.220;2022-07-15T08:08:11;90069.22;;;24.92;41.96
22649;BME280;11491;41.942;24.220;2022-07-15T08:10:38;90057.00;;;24.81;40.37
22649;BME280;11491;41.942;24.220;2022-07-15T08:13:05;90067.59;;;24.95;40.38
22649;BME280;11491;41.942;24.220;2022-07-15T08:15:33;90072.09;;;25.02;41.14
22649;BME280;11491;41.942;24.220;2022-07-15T08:18:00;90068.94;;;25.03;39.36
22649;BME280;11491;41.942;24.220;2022-07-15T08:20:28;90066.56;;;25.05;39.79
22649;BME280;11491;41.942;24.220;2022-07-15T08:22:56;90015.16;;;24.67;41.61
22649;BME280;11491;41.942;24.220;2022-07-15T08:25:25;90075.97;;;25.04;41.00
22649;BME280;11491;41.942;24.220;2022-07-15T08:27:52;90026.56;;;24.79;41.22
22649;BME280;11491;41.942;24.220;2022-07-15T08:30:20;90047.75;;;25.07;40.68
22649;BME280;11491;41.942;24.220;2022-07-15T08:32:47;90050.66;;;25.17;40.18
22649;BME280;11491;41.942;24.220;2022-07-15T08:35:14;90067.91;;;25.30;40.03
22649;BME280;11491;41.942;24.220;2022-07-15T08:37:40;90072.69;;;25.42;41.96
22649;BME280;11491;41.942;24.220;2022-07-15T08:40:10;90067.03;;;25.49;41.43
22649;BME280;11491;41.942;24.220;2022-07-15T08:42:38;90077.78;;;25.56;38.37
22649;BME280;11491;41.942;24.220;2022-07-15T08:47:37;90072.50;;;25.49;38.77
22649;BME280;11491;41.942;24.220;2022-07-15T08:50:05;90080.19;;;25.54;39.44
22649;BME280;11491;41.942;24.220;2022-07-15T08:52:36;90067.31;;;25.68;39.12
22649;BME280;11491;41.942;24.220;2022-07-15T08:55:04;90028.22;;;25.38;38.90
22649;BME280;11491;41.942;24.220;2022-07-15T08:57:33;90065.88;;;25.63;38.83
22649;BME280;11491;41.942;24.220;2022-07-15T09:00:00;90064.91;;;25.70;39.04
22649;BME280;11491;41.942;24.220;2022-07-15T09:02:27;90063.38;;;25.69;39.46
22649;BME280;11491;41.942;24.220;2022-07-15T09:05:19;90059.13;;;25.51;39.52
22649;BME280;11491;41.942;24.220;2022-07-15T09:07:52;90072.63;;;25.58;40.55
22649;BME280;11491;41.942;24.220;2022-07-15T09:10:20;90061.47;;;25.82;40.66
22649;BME280;11491;41.942;24.220;2022-07-15T09:12:50;90056.75;;;26.12;38.60
22649;BME280;11491;41.942;24.220;2022-07-15T09:15:33;90067.91;;;26.17;38.89
22649;BME280;11491;41.942;24.220;2022-07-15T09:18:05;90061.13;;;26.22;38.34
22649;BME280;11491;41.942;24.220;2022-07-15T09:20:33;90060.25;;;26.25;40.64
22649;BME280;11491;41.942;24.220;2022-07-15T09:23:00;90072.84;;;26.23;38.67
22649;BME280;11491;41.942;24.220;2022-07-15T09:25:28;90070.13;;;26.35;38.46
22649;BME280;11491;41.942;24.220;2022-07-15T09:27:56;90057.97;;;26.24;39.94
22649;BME280;11491;41.942;24.220;2022-07-15T09:30:27;90059.38;;;26.28;38.83
22649;BME280;11491;41.942;24.220;2022-07-15T09:33:13;90064.00;;;26.31;38.38
22649;BME280;11491;41.942;24.220;2022-07-15T09:36:12;90051.06;;;26.45;41.37
22649;BME280;11491;41.942;24.220;2022-07-15T09:38:43;90059.25;;;26.61;39.76
22649;BME280;11491;41.942;24.220;2022-07-15T09:41:24;90052.72;;;26.80;39.52
22649;BME280;11491;41.942;24.220;2022-07-15T09:43:55;90018.19;;;26.70;37.58
22649;BME280;11491;41.942;24.220;2022-07-15T09:46:25;90061.41;;;26.79;37.16
22649;BME280;11491;41.942;24.220;2022-07-15T09:48:52;90055.03;;;26.95;38.52
22649;BME280;11491;41.942;24.220;2022-07-15T09:51:21;90000.69;;;26.55;38.72
22649;BME280;11491;41.942;24.220;2022-07-15T09:53:48;90045.59;;;27.21;38.24
22649;BME280;11491;41.942;24.220;2022-07-15T09:56:17;90051.97;;;27.18;37.18
22649;BME280;11491;41.942;24.220;2022-07-15T09:58:47;90024.53;;;26.93;37.09
22649;BME280;11491;41.942;24.220;2022-07-15T10:01:15;90052.28;;;26.95;36.82
22649;BME280;11491;41.942;24.220;2022-07-15T10:03:42;90050.13;;;26.77;37.97
22649;BME280;11491;41.942;24.220;2022-07-15T10:06:13;90040.03;;;26.87;38.18
22649;BME280;11491;41.942;24.220;2022-07-15T10:08:40;90041.53;;;27.00;39.04
22649;BME280;11491;41.942;24.220;2022-07-15T10:11:10;90045.59;;;27.21;38.24
22649;BME280;11491;41.942;24.220;2022-07-15T10:14:01;90048.03;;;26.94;36.65
22649;BME280;11491;41.942;24.220;2022-07-15T10:17:08;90052.63;;;26.97;38.28
22649;BME280;11491;41.942;24.220;2022-07-15T10:19:59;90033.38;;;27.22;39.56
22649;BME280;11491;41.942;24.220;2022-07-15T10:22:40;90043.09;;;27.49;37.67
22649;BME280;11491;41.942;24.220;2022-07-15T10:25:18;90035.09;;;27.42;37.73
22649;BME280;11491;41.942;24.220;2022-07-15T10:27:54;90033.28;;;27.61;37.40
22649;BME280;11491;41.942;24.220;2022-07-15T10:30:25;90030.00;;;27.88;36.95
22649;BME280;11491;41.942;24.220;2022-07-15T10:33:10;90026.66;;;28.15;37.75
22649;BME280;11491;41.942;24.220;2022-07-15T10:35:41;90023.84;;;28.28;34.51
22649;BME280;11491;41.942;24.220;2022-07-15T10:38:29;90010.78;;;28.19;35.02
22649;BME280;11491;41.942;24.220;2022-07-15T10:41:04;90021.94;;;28.16;37.52
22649;BME280;11491;41.942;24.220;2022-07-15T10:43:41;89995.06;;;28.20;36.54
22649;BME280;11491;41.942;24.220;2022-07-15T10:46:23;90020.84;;;28.44;36.18
22649;BME280;11491;41.942;24.220;2022-07-15T10:49:26;90013.91;;;28.62;35.88
22649;BME280;11491;41.942;24.220;2022-07-15T10:51:46;90000.78;;;28.56;35.80
22649;BME280;11491;41.942;24.220;2022-07-15T10:54:42;90010.97;;;28.96;35.72
22649;BME280;11491;41.942;24.220;2022-07-15T10:57:10;90007.06;;;29.07;33.97
22649;BME280;11491;41.942;24.220;2022-07-15T10:59:39;90005.19;;;28.94;34.83
22649;BME280;11491;41.942;24.220;2022-07-15T11:02:15;90010.38;;;28.52;34.99
22649;BME280;11491;41.942;24.220;2022-07-15T11:04:45;90015.50;;;28.41;35.27
22649;BME280;11491;41.942;24.220;2022-07-15T11:07:19;90014.72;;;28.40;33.85
22649;BME280;11491;41.942;24.220;2022-07-15T11:09:47;90016.78;;;28.49;34.81
22649;BME280;11491;41.942;24.220;2022-07-15T11:12:16;90006.81;;;28.42;36.06
22649;BME280;11491;41.942;24.220;2022-07-15T11:14:45;90007.22;;;28.72;35.62
22649;BME280;11491;41.942;24.220;2022-07-15T11:17:14;90010.03;;;28.81;34.83
22649;BME280;11491;41.942;24.220;2022-07-15T11:19:47;90006.53;;;28.90;35.11
22649;BME280;11491;41.942;24.220;2022-07-15T11:22:16;90006.03;;;28.73;32.94
22649;BME280;11491;41.942;24.220;2022-07-15T11:24:43;90007.56;;;28.74;32.73
22649;BME280;11491;41.942;24.220;2022-07-15T11:27:10;89999.09;;;28.99;33.89
22649;BME280;11491;41.942;24.220;2022-07-15T11:29:42;89938.75;;;28.55;34.56
22649;BME280;11491;41.942;24.220;2022-07-15T11:32:10;90006.06;;;28.82;32.70
22649;BME280;11491;41.942;24.220;2022-07-15T11:34:41;90002.66;;;28.69;34.51
22649;BME280;11491;41.942;24.220;2022-07-15T11:37:10;90002.09;;;28.83;34.60
22649;BME280;11491;41.942;24.220;2022-07-15T11:39:38;89915.84;;;28.18;35.04
22649;BME280;11491;41.942;24.220;2022-07-15T11:42:05;89942.44;;;28.52;35.42
22649;BME280;11491;41.942;24.220;2022-07-15T11:44:50;89999.09;;;28.99;33.13
22649;BME280;11491;41.942;24.220;2022-07-15T11:47:17;90000.13;;;28.93;31.24
22649;BME280;11491;41.942;24.220;2022-07-15T11:49:45;89953.78;;;28.73;34.37
22649;BME280;11491;41.942;24.220;2022-07-15T11:52:23;89999.75;;;29.22;34.08
22649;BME280;11491;41.942;24.220;2022-07-15T11:54:51;90007.13;;;29.34;33.19
22649;BME280;11491;41.942;24.220;2022-07-15T11:57:18;90001.28;;;29.41;33.90
22649;BME280;11491;41.942;24.220;2022-07-15T11:59:52;89937.69;;;29.21;32.50
22649;BME280;11491;41.942;24.220;2022-07-15T12:02:23;90004.06;;;29.60;31.78
22649;BME280;11491;41.942;24.220;2022-07-15T12:04:51;89926.63;;;29.03;30.37
22649;BME280;11491;41.942;24.220;2022-07-15T12:07:21;89983.56;;;29.33;31.33
22649;BME280;11491;41.942;24.220;2022-07-15T12:09:49;89995.78;;;29.23;31.72
22649;BME280;11491;41.942;24.220;2022-07-15T12:12:17;89964.13;;;29.09;32.84
22649;BME280;11491;41.942;24.220;2022-07-15T12:14:47;89992.41;;;29.28;31.54
22649;BME280;11491;41.942;24.220;2022-07-15T12:17:14;89954.47;;;29.05;32.95
22649;BME280;11491;41.942;24.220;2022-07-15T12:19:46;89997.94;;;29.37;31.92
22649;BME280;11491;41.942;24.220;2022-07-15T12:22:13;89999.47;;;29.29;33.36
22649;BME280;11491;41.942;24.220;2022-07-15T12:24:43;89991.50;;;29.31;32.83
22649;BME280;11491;41.942;24.220;2022-07-15T12:27:11;89981.75;;;29.39;33.26
22649;BME280;11491;41.942;24.220;2022-07-15T12:29:39;89997.16;;;29.46;33.07
22649;BME280;11491;41.942;24.220;2022-07-15T12:32:08;89999.19;;;29.55;34.25
22649;BME280;11491;41.942;24.220;2022-07-15T12:34:51;89971.94;;;29.38;31.92
22649;BME280;11491;41.942;24.220;2022-07-15T12:37:20;89930.94;;;29.31;33.75
22649;BME280;11491;41.942;24.220;2022-07-15T12:39:57;89977.47;;;29.66;29.63
22649;BME280;11491;41.942;24.220;2022-07-15T12:42:24;90002.06;;;29.60;30.70
22649;BME280;11491;41.942;24.220;2022-07-15T12:45:09;89988.75;;;29.22;32.24
22649;BME280;11491;41.942;24.220;2022-07-15T12:47:36;90000.09;;;29.52;33.00
22649;BME280;11491;41.942;24.220;2022-07-15T12:50:04;89993.03;;;30.06;31.33
22649;BME280;11491;41.942;24.220;2022-07-15T12:52:33;89999.59;;;30.36;31.37
22649;BME280;11491;41.942;24.220;2022-07-15T12:55:15;90005.69;;;30.40;31.43
22649;BME280;11491;41.942;24.220;2022-07-15T12:57:42;89996.34;;;30.38;32.24
22649;BME280;11491;41.942;24.220;2022-07-15T13:00:12;90006.72;;;30.52;32.01
22649;BME280;11491;41.942;24.220;2022-07-15T13:02:56;90008.94;;;30.39;28.95
22649;BME280;11491;41.942;24.220;2022-07-15T13:05:25;90002.41;;;30.60;29.93
22649;BME280;11491;41.942;24.220;2022-07-15T13:07:52;90006.00;;;30.85;31.00
22649;BME280;11491;41.942;24.220;2022-07-15T13:10:21;90001.31;;;31.33;28.33
22649;BME280;11491;41.942;24.220;2022-07-15T13:12:48;89998.03;;;31.44;28.28
22649;BME280;11491;41.942;24.220;2022-07-15T13:15:15;89989.03;;;31.59;27.68
22649;BME280;11491;41.942;24.220;2022-07-15T13:17:41;90007.13;;;31.60;29.25
22649;BME280;11491;41.942;24.220;2022-07-15T13:20:09;89985.75;;;31.84;29.12
22649;BME280;11491;41.942;24.220;2022-07-15T13:22:37;89975.00;;;31.86;28.32
22649;BME280;11491;41.942;24.220;2022-07-15T13:25:05;90002.59;;;31.95;28.42
22649;BME280;11491;41.942;24.220;2022-07-15T13:27:34;89990.69;;;31.41;26.61
22649;BME280;11491;41.942;24.220;2022-07-15T13:30:01;89994.34;;;31.47;28.09
22649;BME280;11491;41.942;24.220;2022-07-15T13:32:27;90002.19;;;31.64;28.39
22649;BME280;11491;41.942;24.220;2022-07-15T13:34:54;90004.44;;;31.89;27.37
22649;BME280;11491;41.942;24.220;2022-07-15T13:37:21;90005.41;;;31.86;27.52
22649;BME280;11491;41.942;24.220;2022-07-15T13:39:48;90000.13;;;31.73;26.18
22649;BME280;11491;41.942;24.220;2022-07-15T13:42:15;89996.31;;;31.71;27.16
22649;BME280;11491;41.942;24.220;2022-07-15T13:44:44;90002.97;;;31.40;27.38
22649;BME280;11491;41.942;24.220;2022-07-15T13:47:11;90003.28;;;31.42;26.39
22649;BME280;11491;41.942;24.220;2022-07-15T13:49:37;90005.13;;;31.36;26.85
22649;BME280;11491;41.942;24.220;2022-07-15T13:52:22;90017.81;;;31.19;26.83
22649;BME280;11491;41.942;24.220;2022-07-15T13:54:49;90003.53;;;31.20;26.83
22649;BME280;11491;41.942;24.220;2022-07-15T13:57:15;90007.88;;;31.45;26.54
22649;BME280;11491;41.942;24.220;2022-07-15T13:59:46;90003.50;;;31.53;25.75
22649;BME280;11491;41.942;24.220;2022-07-15T14:02:13;89980.91;;;31.55;26.59
22649;BME280;11491;41.942;24.220;2022-07-15T14:04:40;90001.69;;;31.89;25.30
22649;BME280;11491;41.942;24.220;2022-07-15T14:07:07;89999.28;;;32.21;26.48
22649;BME280;11491;41.942;24.220;2022-07-15T14:09:34;89992.03;;;32.24;25.44
22649;BME280;11491;41.942;24.220;2022-07-15T14:12:01;90002.50;;;32.19;25.33
22649;BME280;11491;41.942;24.220;2022-07-15T14:14:28;89993.16;;;32.32;27.25
22649;BME280;11491;41.942;24.220;2022-07-15T14:16:56;89997.19;;;32.75;26.97
22649;BME280;11491;41.942;24.220;2022-07-15T14:19:23;89990.41;;;32.76;25.26
22649;BME280;11491;41.942;24.220;2022-07-15T14:21:50;89977.91;;;32.66;25.51
22649;BME280;11491;41.942;24.220;2022-07-15T14:24:17;89979.84;;;32.75;25.51
22649;BME280;11491;41.942;24.220;2022-07-15T14:26:44;89994.72;;;32.77;25.57
22649;BME280;11491;41.942;24.220;2022-07-15T14:29:11;89946.09;;;32.56;25.71
22649;BME280;11491;41.942;24.220;2022-07-15T14:31:37;89987.47;;;32.80;26.49
22649;BME280;11491;41.942;24.220;2022-07-15T14:34:06;89998.56;;;33.00;26.23
22649;BME280;11491;41.942;24.220;2022-07-15T14:36:33;89965.91;;;32.69;25.11
22649;BME280;11491;41.942;24.220;2022-07-15T14:39:00;89997.13;;;32.55;26.97
22649;BME280;11491;41.942;24.220;2022-07-15T14:41:26;89993.94;;;32.03;25.71
22649;BME280;11491;41.942;24.220;2022-07-15T14:43:53;89973.84;;;31.78;26.66
22649;BME280;11491;41.942;24.220;2022-07-15T14:46:20;89999.56;;;31.84;28.29
22649;BME280;11491;41.942;24.220;2022-07-15T14:48:47;89992.97;;;32.06;26.56
22649;BME280;11491;41.942;24.220;2022-07-15T14:51:16;89999.09;;;32.39;26.53
22649;BME280;11491;41.942;24.220;2022-07-15T14:53:43;89991.00;;;32.51;25.84
22649;BME280;11491;41.942;24.220;2022-07-15T14:56:10;89988.22;;;32.80;26.58
22649;BME280;11491;41.942;24.220;2022-07-15T14:58:37;89992.38;;;32.91;25.07
22649;BME280;11491;41.942;24.220;2022-07-15T15:01:04;89993.13;;;33.06;26.14
22649;BME280;11491;41.942;24.220;2022-07-15T15:03:30;89994.94;;;33.09;26.05
22649;BME280;11491;41.942;24.220;2022-07-15T15:05:58;89989.44;;;33.30;26.90
22649;BME280;11491;41.942;24.220;2022-07-15T15:08:26;89991.09;;;33.57;25.66
22649;BME280;11491;41.942;24.220;2022-07-15T15:10:53;89986.25;;;33.72;25.32
22649;BME280;11491;41.942;24.220;2022-07-15T15:13:19;89994.94;;;33.44;25.43
22649;BME280;11491;41.942;24.220;2022-07-15T15:15:46;89982.97;;;33.74;25.81